Time;durP1;ratioP1;P1;durP2;ratioP2;P2;SDS_P1;SDS_P2;PMS_P1;PMS_P2;Temp;Humidity;BMP_temperature;BMP_pressure;BME280_temperature;BME280_humidity;BME280_pressure;Samples;Min_cycle;Max_cycle;Signal;HPM_P1;HPM_P2
2022/06/16 00:02:01;;;;;;;;;;;20.70;67.20;;;19.88;64.32;96013.91;5031392;28;20337;-66
2022/06/16 00:04:27;;;;;;;;;;;20.70;66.80;;;19.87;64.15;96014.16;5004052;28;19932;-66
2022/06/16 00:06:55;;;;;;;;;;;20.70;66.70;;;19.88;65.03;96013.09;5009285;28;19946;-66
2022/06/16 00:09:21;;;;;;;;;;;20.70;66.70;;;19.85;64.91;96011.75;5011649;28;19931;-66
2022/06/16 00:11:46;;;;;;;;;;;20.60;66.90;;;19.78;65.05;96002.31;5018038;28;19917;-66
2022/06/16 00:14:12;;;;;;;;;;;20.60;67.00;;;19.78;65.22;96010.31;5012214;28;19921;-66
2022/06/16 00:16:38;;;;;;;;;;;20.60;67.30;;;19.75;65.28;96018.81;5008918;28;19922;-66
2022/06/16 00:19:04;;;;;;;;;;;20.50;67.90;;;19.70;65.54;96022.25;5032116;28;19931;-66
2022/06/16 00:21:29;;;;;;;;;;;20.50;68.20;;;19.67;65.20;96019.25;5021830;28;19929;-66
2022/06/16 00:23:55;;;;;;;;;;;20.50;68.50;;;19.63;66.37;96016.28;5016609;28;19928;-67
2022/06/16 00:26:22;;;;;;;;;;;20.40;68.80;;;19.60;66.28;96013.28;5026191;28;19921;-66
2022/06/16 00:28:47;;;;;;;;;;;20.40;68.90;;;19.55;67.14;96008.72;5025748;28;19984;-66
2022/06/16 00:31:14;;;;;;;;;;;20.40;69.10;;;19.53;67.02;96013.44;5040798;28;19925;-66
2022/06/16 00:33:40;;;;;;;;;;;20.30;69.50;;;19.48;66.91;96008.88;4991046;28;20027;-66
2022/06/16 00:36:06;;;;;;;;;;;20.30;69.60;;;19.43;67.15;96000.78;5025688;28;20495;-66
2022/06/16 00:38:31;;;;;;;;;;;20.20;69.70;;;19.40;67.81;96013.78;5003618;28;19953;-66
2022/06/16 00:40:57;;;;;;;;;;;20.20;69.90;;;19.36;67.70;96016.16;5029017;28;19999;-66
2022/06/16 00:43:23;;;;;;;;;;;20.10;70.00;;;19.34;67.05;96017.47;5029486;28;19917;-66
2022/06/16 00:45:56;;;;;;;;;;;20.10;70.30;;;19.31;68.92;96024.09;5032963;28;19917;-66
2022/06/16 00:48:38;;;;;;;;;;;20.10;70.30;;;19.25;68.06;96012.56;5021535;28;19921;-66
2022/06/16 00:51:24;;;;;;;;;;;20.10;70.50;;;19.23;69.21;96011.16;4997690;28;19922;-66
2022/06/16 00:53:50;;;;;;;;;;;20.10;70.40;;;19.20;68.91;96014.31;5010357;28;19943;-66
2022/06/16 00:56:17;;;;;;;;;;;20.10;70.50;;;19.18;68.61;96008.44;5001688;28;20391;-66
2022/06/16 00:58:45;;;;;;;;;;;20.10;70.60;;;19.14;68.29;96012.63;5018167;28;20300;-67
2022/06/16 01:01:13;;;;;;;;;;;20.00;70.60;;;19.14;68.45;96007.31;5026012;28;20449;-66
2022/06/16 01:06:28;;;;;;;;;;;19.90;70.70;;;19.08;69.37;95997.63;5012200;28;20025;-66
2022/06/16 01:08:59;;;;;;;;;;;19.90;70.90;;;19.07;70.10;96006.69;5019600;28;19927;-66
2022/06/16 01:14:55;;;;;;;;;;;20.00;71.20;;;19.03;69.71;96000.22;4992515;28;20018;-66
2022/06/16 01:17:45;;;;;;;;;;;19.90;71.00;;;18.99;68.75;95994.56;5017291;28;19925;-66
2022/06/16 01:20:40;;;;;;;;;;;19.90;70.80;;;19.00;69.89;95998.03;5029745;28;19972;-66
2022/06/16 01:23:49;;;;;;;;;;;19.90;71.20;;;18.96;69.10;95985.19;5033779;28;19934;-66
2022/06/16 01:26:21;;;;;;;;;;;19.90;71.20;;;18.93;69.33;95984.88;5003034;28;20529;-67
2022/06/16 01:29:12;;;;;;;;;;;19.80;71.50;;;18.89;69.92;95976.56;5020997;28;19943;-66
2022/06/16 01:31:53;;;;;;;;;;;19.80;71.80;;;18.91;70.34;95994.97;5049355;28;19925;-66
2022/06/16 01:34:28;;;;;;;;;;;19.70;71.50;;;18.88;69.90;95993.59;5028552;28;19968;-66
2022/06/16 01:37:00;;;;;;;;;;;19.80;71.30;;;18.87;70.34;95996.50;4972178;28;19983;-66
2022/06/16 01:39:31;;;;;;;;;;;19.80;71.70;;;18.85;70.08;95994.09;5019106;28;20121;-66
2022/06/16 01:42:01;;;;;;;;;;;19.70;71.50;;;18.82;70.64;95997.25;5014560;28;19925;-66
2022/06/16 01:44:36;;;;;;;;;;;19.70;71.60;;;18.82;68.85;96005.25;4998790;28;19917;-66
2022/06/16 01:47:07;;;;;;;;;;;19.70;70.70;;;18.80;69.87;96001.22;5026942;28;20019;-66
2022/06/16 01:49:35;;;;;;;;;;;19.60;71.40;;;18.77;70.40;96007.81;5011756;28;19960;-66
2022/06/16 01:52:07;;;;;;;;;;;19.60;71.40;;;18.74;70.56;95994.97;5036243;28;19959;-65
2022/06/16 01:54:37;;;;;;;;;;;19.70;71.40;;;18.74;69.57;95997.63;5012965;28;20328;-65
2022/06/16 01:57:08;;;;;;;;;;;19.60;71.40;;;18.73;69.88;96006.69;5027993;28;20341;-65
2022/06/16 01:59:39;;;;;;;;;;;19.60;71.40;;;18.72;70.65;96001.59;5000385;28;19925;-65
2022/06/16 02:02:07;;;;;;;;;;;19.60;71.20;;;18.69;70.41;96000.22;4985694;28;19929;-65
2022/06/16 02:04:38;;;;;;;;;;;19.60;71.30;;;18.66;69.41;96008.72;5010622;28;19995;-65
2022/06/16 02:07:05;;;;;;;;;;;19.60;70.00;;;18.65;69.21;95996.44;5005284;28;19959;-65
2022/06/16 02:09:36;;;;;;;;;;;19.50;70.50;;;18.64;69.03;96002.81;5020645;28;19929;-66
2022/06/16 02:12:02;;;;;;;;;;;19.60;70.70;;;18.65;70.36;95996.44;5006004;28;20087;-67
2022/06/16 02:14:32;;;;;;;;;;;19.60;70.90;;;18.64;70.39;95986.84;5017058;28;20722;-65
2022/06/16 02:16:58;;;;;;;;;;;19.50;71.10;;;18.63;69.58;95988.69;5022751;28;19921;-65
2022/06/16 02:19:24;;;;;;;;;;;19.60;70.80;;;18.64;70.23;95992.97;4985981;28;19917;-65
2022/06/16 02:21:50;;;;;;;;;;;19.60;70.90;;;18.65;70.33;95999.09;5019641;28;20015;-65
2022/06/16 02:24:20;;;;;;;;;;;19.50;71.00;;;18.62;70.34;95989.75;4997701;28;19914;-66
2022/06/16 02:26:46;;;;;;;;;;;19.50;71.20;;;18.62;70.00;96005.72;4968293;28;19968;-66
2022/06/16 02:29:32;;;;;;;;;;;19.50;71.20;;;18.59;69.58;96000.03;4993549;28;19922;-67
2022/06/16 02:32:01;;;;;;;;;;;19.50;71.40;;;18.56;69.88;96001.34;5001440;28;19924;-67
2022/06/16 02:34:32;;;;;;;;;;;19.50;71.50;;;18.54;70.51;95997.28;5013479;28;19921;-67
2022/06/16 02:37:10;;;;;;;;;;;19.50;71.70;;;18.51;70.71;95993.25;5017616;28;19984;-67
2022/06/16 02:39:50;;;;;;;;;;;19.40;71.90;;;18.49;71.04;95992.69;5002572;28;20008;-67
2022/06/16 02:42:27;;;;;;;;;;;19.40;72.20;;;18.46;71.90;95987.84;5041116;28;20304;-67
2022/06/16 02:45:13;;;;;;;;;;;19.40;72.40;;;18.46;71.53;95984.38;5022165;28;20340;-67
2022/06/16 02:48:04;;;;;;;;;;;19.30;72.40;;;18.43;70.85;95979.53;5044741;28;20379;-68
2022/06/16 02:50:43;;;;;;;;;;;19.30;72.40;;;18.41;71.15;95978.97;5028921;28;20513;-66
2022/06/16 02:53:34;;;;;;;;;;;19.30;72.70;;;18.36;72.13;95972.50;5025802;28;20265;-67
2022/06/16 02:56:05;;;;;;;;;;;19.20;73.00;;;18.32;72.30;95963.34;5039426;28;20012;-67
2022/06/16 02:58:30;;;;;;;;;;;19.20;72.90;;;18.29;72.24;95963.84;5025879;28;19921;-67
2022/06/16 03:00:56;;;;;;;;;;;19.10;73.00;;;18.28;72.74;95967.56;5012964;28;20000;-67
2022/06/16 03:03:28;;;;;;;;;;;19.10;73.20;;;18.26;72.35;95968.84;5024561;28;19917;-67
2022/06/16 03:05:54;;;;;;;;;;;19.10;73.20;;;18.25;72.59;95960.06;5031845;28;20352;-67
2022/06/16 03:08:25;;;;;;;;;;;19.10;73.20;;;18.21;71.74;95955.44;5033677;28;19944;-66
2022/06/16 03:10:50;;;;;;;;;;;19.10;73.20;;;18.15;72.11;95951.91;5035301;28;19917;-67
2022/06/16 03:13:20;;;;;;;;;;;19.10;73.20;;;18.14;73.13;95960.94;5026504;28;19923;-67
2022/06/16 03:15:47;;;;;;;;;;;19.10;73.40;;;18.12;72.90;95962.22;4995083;28;19988;-67
2022/06/16 03:18:12;;;;;;;;;;;19.10;73.20;;;18.11;73.38;95956.09;4999523;28;19923;-67
2022/06/16 03:20:38;;;;;;;;;;;19.10;73.30;;;18.10;73.12;95959.78;4967176;28;19917;-67
2022/06/16 03:23:04;;;;;;;;;;;19.00;73.50;;;18.10;73.50;95959.78;5012493;28;19928;-67
2022/06/16 03:25:29;;;;;;;;;;;19.10;73.40;;;18.08;73.70;95961.88;5010291;28;19955;-67
2022/06/16 03:27:55;;;;;;;;;;;19.10;73.60;;;18.06;73.78;95969.28;4993621;28;19917;-67
2022/06/16 03:30:21;;;;;;;;;;;19.00;73.50;;;18.06;73.03;95975.41;5003935;28;20344;-67
2022/06/16 03:32:46;;;;;;;;;;;19.10;73.40;;;18.06;73.60;95974.63;4959422;28;19925;-67
2022/06/16 03:35:12;;;;;;;;;;;19.00;73.50;;;18.05;73.80;95975.66;5021931;28;20000;-67
2022/06/16 03:37:40;;;;;;;;;;;19.10;73.70;;;18.02;73.15;95979.59;5032455;28;19917;-67
2022/06/16 03:40:07;;;;;;;;;;;19.00;73.50;;;18.02;73.13;95973.47;5036824;28;19932;-67
2022/06/16 03:42:33;;;;;;;;;;;19.00;73.50;;;17.98;72.90;95972.34;5025488;28;20016;-66
2022/06/16 03:44:59;;;;;;;;;;;19.10;73.30;;;18.03;72.86;95980.41;4988360;28;19965;-66
2022/06/16 03:47:24;;;;;;;;;;;19.10;73.40;;;18.04;72.82;95982.03;4999045;28;19921;-66
2022/06/16 03:49:50;;;;;;;;;;;19.00;72.80;;;18.03;72.07;95981.22;4993576;28;19948;-66
2022/06/16 03:52:16;;;;;;;;;;;19.00;72.50;;;18.02;71.81;95978.81;4997552;28;20004;-66
2022/06/16 03:54:41;;;;;;;;;;;19.10;72.20;;;18.01;72.45;95977.19;5002810;28;19917;-65
2022/06/16 03:57:07;;;;;;;;;;;19.10;72.70;;;18.02;73.72;95976.94;5045687;28;19982;-65
2022/06/16 03:59:33;;;;;;;;;;;19.10;73.10;;;17.99;73.04;95968.63;5014530;28;19928;-66
2022/06/16 04:01:58;;;;;;;;;;;19.00;73.00;;;18.01;73.12;95974.53;5002506;28;20301;-66
2022/06/16 04:04:24;;;;;;;;;;;19.10;72.90;;;18.00;73.04;95973.72;4995904;28;19921;-65
2022/06/16 04:06:51;;;;;;;;;;;19.10;72.70;;;18.04;73.55;95979.38;5024934;28;19918;-66
2022/06/16 04:09:17;;;;;;;;;;;19.10;72.90;;;18.05;73.26;95988.97;5021975;28;19918;-66
2022/06/16 04:11:42;;;;;;;;;;;19.10;72.20;;;18.05;72.06;95989.78;4998020;28;19978;-66
2022/06/16 04:14:12;;;;;;;;;;;19.10;71.70;;;18.07;72.57;95994.84;5031844;28;19927;-66
2022/06/16 04:16:42;;;;;;;;;;;19.20;71.80;;;18.08;72.11;95993.81;5011912;28;20400;-65
2022/06/16 04:19:08;;;;;;;;;;;19.30;71.50;;;18.11;72.66;96001.34;5013983;28;19916;-66
2022/06/16 04:21:38;;;;;;;;;;;19.30;71.60;;;18.14;72.03;96002.72;5021427;28;19952;-66
2022/06/16 04:24:04;;;;;;;;;;;19.30;71.10;;;18.16;71.42;95990.78;5023509;28;20273;-66
2022/06/16 04:26:29;;;;;;;;;;;19.40;70.90;;;18.19;71.09;95990.31;4992832;28;19932;-66
2022/06/16 04:28:55;;;;;;;;;;;19.40;70.60;;;18.17;70.73;95989.75;5003310;28;20296;-66
2022/06/16 04:31:21;;;;;;;;;;;19.30;70.50;;;18.21;70.25;95985.53;5008893;28;19917;-66
2022/06/16 04:33:46;;;;;;;;;;;19.40;70.50;;;18.20;70.79;95978.59;5017878;28;19924;-66
2022/06/16 04:36:13;;;;;;;;;;;19.40;70.50;;;18.26;70.52;95976.84;5007086;28;20359;-66
2022/06/16 04:38:38;;;;;;;;;;;19.40;70.50;;;18.28;71.13;95967.56;5025078;28;19980;-66
2022/06/16 04:41:04;;;;;;;;;;;19.50;70.50;;;18.34;71.98;95979.13;5009320;28;19929;-66
2022/06/16 04:43:30;;;;;;;;;;;19.60;70.30;;;18.35;70.75;95976.22;4994894;28;20028;-66
2022/06/16 04:45:56;;;;;;;;;;;19.60;70.20;;;18.41;71.14;95978.97;5010096;28;19995;-66
2022/06/16 04:48:22;;;;;;;;;;;19.60;70.00;;;18.45;70.29;95977.44;5000095;28;19924;-66
2022/06/16 04:50:47;;;;;;;;;;;19.70;69.80;;;18.47;70.40;95975.31;5024823;28;20288;-66
2022/06/16 04:53:13;;;;;;;;;;;19.70;70.00;;;18.49;72.09;95978.56;4992747;28;19982;-66
2022/06/16 04:55:39;;;;;;;;;;;19.80;70.50;;;18.51;71.79;95982.59;4982042;28;19918;-66
2022/06/16 04:58:04;;;;;;;;;;;19.70;70.00;;;18.53;71.69;95991.13;5012497;28;20683;-66
2022/06/16 05:00:30;;;;;;;;;;;19.80;69.90;;;18.55;71.43;95988.22;5035748;28;19924;-66
2022/06/16 05:02:56;;;;;;;;;;;19.80;69.80;;;18.58;70.58;95987.78;4977514;28;19921;-66
2022/06/16 05:05:22;;;;;;;;;;;19.80;69.80;;;18.63;71.24;95987.88;4998380;28;19940;-66
2022/06/16 05:07:48;;;;;;;;;;;19.90;69.40;;;18.63;70.02;95996.69;5007016;28;20327;-66
2022/06/16 05:10:14;;;;;;;;;;;19.90;68.90;;;18.67;68.39;95995.16;5006739;28;19925;-66
2022/06/16 05:12:40;;;;;;;;;;;19.90;68.90;;;18.66;68.97;95992.72;5002228;28;19982;-66
2022/06/16 05:15:06;;;;;;;;;;;19.80;68.80;;;18.65;69.72;95994.56;5041500;28;19928;-66
2022/06/16 05:17:31;;;;;;;;;;;19.80;69.20;;;18.65;68.93;96005.25;5011317;28;19925;-66
2022/06/16 05:19:57;;;;;;;;;;;19.80;69.40;;;18.66;69.91;95993.53;5028447;28;19972;-66
2022/06/16 05:22:23;;;;;;;;;;;19.80;69.30;;;18.67;70.63;95997.00;5008381;28;19921;-66
2022/06/16 05:24:49;;;;;;;;;;;19.90;69.20;;;18.68;70.12;96003.94;5003063;28;20016;-66
2022/06/16 05:27:15;;;;;;;;;;;19.90;69.50;;;18.69;70.41;95994.91;4982570;28;20303;-66
2022/06/16 05:29:42;;;;;;;;;;;19.90;69.40;;;18.73;71.40;95993.34;4983071;28;19967;-66
2022/06/16 05:32:09;;;;;;;;;;;20.10;69.40;;;18.75;70.55;95996.59;5022625;28;19924;-66
2022/06/16 05:34:36;;;;;;;;;;;20.10;69.30;;;18.83;70.59;96012.19;5002555;28;19964;-66
2022/06/16 05:37:02;;;;;;;;;;;20.20;69.50;;;18.90;71.31;96014.69;5021273;28;20000;-66
2022/06/16 05:39:27;;;;;;;;;;;20.20;69.40;;;18.95;71.57;96006.75;5004931;28;19928;-66
2022/06/16 05:41:53;;;;;;;;;;;20.40;69.20;;;19.04;72.23;96018.66;5019390;28;19922;-66
2022/06/16 05:44:19;;;;;;;;;;;20.50;69.40;;;19.16;72.81;96021.19;5040454;28;19924;-66
2022/06/16 05:46:44;;;;;;;;;;;20.70;69.10;;;19.25;71.37;96019.75;5005643;28;19917;-66
2022/06/16 05:49:13;;;;;;;;;;;20.80;68.60;;;19.39;70.92;96023.66;5027885;28;19979;-66
2022/06/16 05:51:39;;;;;;;;;;;21.00;68.10;;;19.51;70.98;96037.72;5017079;28;19916;-66
2022/06/16 05:54:05;;;;;;;;;;;21.10;68.00;;;19.66;70.72;96037.13;5004019;28;20412;-67
2022/06/16 05:56:30;;;;;;;;;;;21.40;67.80;;;19.79;70.52;96033.28;5012733;28;19921;-66
2022/06/16 05:58:56;;;;;;;;;;;21.60;66.50;;;19.98;70.79;96034.59;5030080;28;19917;-67
2022/06/16 06:01:22;;;;;;;;;;;21.90;66.80;;;20.18;69.72;96034.00;5009838;28;19925;-66
2022/06/16 06:03:47;;;;;;;;;;;22.20;65.30;;;20.37;68.36;96037.16;5014794;28;19926;-66
2022/06/16 06:06:13;;;;;;;;;;;22.40;64.00;;;20.58;69.10;96041.63;5008257;28;20439;-66
2022/06/16 06:17:12;;;;;;;;;;;22.90;63.50;;;21.26;66.32;96034.72;5019983;28;19991;-66
2022/06/16 06:19:38;;;;;;;;;;;23.00;62.00;;;21.32;66.83;96031.03;5035104;28;20384;-66
2022/06/16 06:22:11;;;;;;;;;;;22.90;62.90;;;21.37;66.63;96036.41;4996707;28;20307;-66
2022/06/16 06:24:38;;;;;;;;;;;22.90;62.60;;;21.40;66.98;96030.53;5024676;28;19917;-66
2022/06/16 06:27:09;;;;;;;;;;;23.10;63.00;;;21.48;66.05;96023.06;5027755;28;19926;-66
2022/06/16 06:29:34;;;;;;;;;;;23.30;61.50;;;21.58;66.79;96021.28;5019509;28;19925;-66
2022/06/16 06:32:01;;;;;;;;;;;23.60;61.30;;;21.69;65.50;96027.47;5005087;28;19922;-66
2022/06/16 06:34:28;;;;;;;;;;;23.80;60.20;;;21.85;66.13;96025.69;5030768;28;19917;-66
2022/06/16 06:36:54;;;;;;;;;;;24.20;60.00;;;22.05;66.11;96030.34;5026230;28;19924;-66
2022/06/16 06:39:20;;;;;;;;;;;24.50;59.20;;;22.23;64.89;96029.84;5033330;28;19921;-67
2022/06/16 06:41:45;;;;;;;;;;;24.80;58.20;;;22.44;64.92;96034.19;5011752;28;19925;-67
2022/06/16 06:44:11;;;;;;;;;;;25.00;57.60;;;22.66;62.83;96031.28;5034472;28;20406;-66
2022/06/16 06:46:39;;;;;;;;;;;25.30;55.30;;;22.90;62.75;96029.72;5029767;28;19914;-67
2022/06/16 06:49:04;;;;;;;;;;;25.60;55.00;;;23.20;62.15;96028.88;5032076;28;21660;-67
2022/06/16 06:51:33;;;;;;;;;;;25.90;54.40;;;23.43;62.26;96029.38;4996152;28;19918;-68
2022/06/16 06:53:59;;;;;;;;;;;25.90;54.70;;;23.62;59.27;96027.75;5009248;28;20025;-67
2022/06/16 06:56:24;;;;;;;;;;;25.80;52.60;;;23.66;60.21;96026.13;5008912;28;20427;-67
2022/06/16 06:58:52;;;;;;;;;;;25.70;53.80;;;23.80;59.27;96029.84;5029367;28;20000;-68
2022/06/16 07:01:17;;;;;;;;;;;25.70;53.20;;;23.86;59.33;96035.19;5013000;28;20016;-66
2022/06/16 07:03:43;;;;;;;;;;;25.80;53.20;;;23.92;60.35;96037.59;5024327;28;19917;-66
2022/06/16 07:06:09;;;;;;;;;;;25.80;54.00;;;23.99;59.90;96038.13;5012589;28;19925;-66
2022/06/16 07:08:34;;;;;;;;;;;26.00;53.80;;;24.06;61.33;96030.53;4993627;28;19920;-67
2022/06/16 07:11:00;;;;;;;;;;;26.00;54.90;;;24.12;59.58;96036.69;5010167;28;19923;-68
2022/06/16 07:13:26;;;;;;;;;;;26.00;53.40;;;24.16;59.62;96040.44;5018781;28;19923;-67
2022/06/16 07:15:51;;;;;;;;;;;26.00;53.60;;;24.18;60.00;96048.22;5029962;28;19955;-67
2022/06/16 07:18:17;;;;;;;;;;;26.00;54.10;;;24.24;59.55;96049.81;5053065;28;19939;-67
2022/06/16 07:20:43;;;;;;;;;;;26.10;53.90;;;24.30;59.93;96049.53;4992849;28;19924;-68
2022/06/16 07:23:08;;;;;;;;;;;26.50;53.50;;;24.47;59.16;96051.06;5032917;28;19925;-67
2022/06/16 07:25:34;;;;;;;;;;;27.00;51.80;;;24.66;59.84;96057.38;5009043;28;20300;-67
2022/06/16 07:28:00;;;;;;;;;;;27.20;52.00;;;24.77;57.92;96052.75;5007079;28;19917;-67
2022/06/16 07:30:26;;;;;;;;;;;26.90;51.00;;;24.85;58.09;96061.03;4980312;28;20003;-66
2022/06/16 07:32:52;;;;;;;;;;;26.80;51.80;;;24.88;56.88;96055.06;5020872;28;19917;-67
2022/06/16 07:35:21;;;;;;;;;;;26.70;50.70;;;24.94;57.04;96059.34;5037748;28;19924;-67
2022/06/16 07:37:47;;;;;;;;;;;26.70;51.40;;;24.98;58.37;96057.69;5005369;28;19921;-67
2022/06/16 07:40:13;;;;;;;;;;;26.80;52.10;;;25.02;58.17;96053.38;4997161;28;19928;-67
2022/06/16 07:42:39;;;;;;;;;;;27.20;51.40;;;25.13;57.75;96040.66;4983602;28;19933;-67
2022/06/16 07:45:05;;;;;;;;;;;27.40;50.90;;;25.27;57.79;96051.56;5011079;28;20006;-67
2022/06/16 07:47:31;;;;;;;;;;;27.50;50.50;;;25.37;56.58;96035.34;5004407;28;19917;-67
2022/06/16 07:49:56;;;;;;;;;;;27.50;49.70;;;25.44;55.96;96038.47;4998339;28;19917;-65
2022/06/16 07:52:22;;;;;;;;;;;27.40;49.80;;;25.48;57.25;96042.19;5014857;28;19921;-69
2022/06/16 07:54:49;;;;;;;;;;;27.60;50.40;;;25.53;56.74;96017.09;4967602;28;19918;-71
2022/06/16 07:57:15;;;;;;;;;;;27.40;50.40;;;25.48;56.64;96011.78;5016030;28;19928;-69
2022/06/16 07:59:40;;;;;;;;;;;27.10;50.90;;;25.44;56.13;96016.13;5003537;28;19922;-70
2022/06/16 08:02:06;;;;;;;;;;;27.00;51.20;;;25.38;56.86;96020.78;5023252;28;19929;-68
2022/06/16 08:04:32;;;;;;;;;;;27.00;51.80;;;25.34;57.57;96020.53;5004832;28;19913;-69
2022/06/16 08:07:00;;;;;;;;;;;27.10;52.40;;;25.37;58.42;96029.94;4978530;28;19917;-71
2022/06/16 08:09:27;;;;;;;;;;;27.50;52.20;;;25.47;58.08;96029.03;5017361;28;19917;-74
2022/06/16 08:12:05;;;;;;;;;;;28.00;51.30;;;25.64;58.09;96029.38;4993847;28;19918;-64
2022/06/16 08:14:31;;;;;;;;;;;28.50;50.00;;;25.84;57.74;96041.88;5018052;28;19921;-63
2022/06/16 08:16:57;;;;;;;;;;;28.80;49.60;;;26.03;56.71;96028.44;5042752;28;20000;-63
2022/06/16 08:19:22;;;;;;;;;;;29.20;47.90;;;26.24;57.62;96027.84;5016543;28;19928;-65
2022/06/16 08:21:48;;;;;;;;;;;29.60;48.60;;;26.54;57.48;96031.28;5011136;28;20029;-64
2022/06/16 08:24:14;;;;;;;;;;;30.10;47.30;;;26.83;56.04;96029.22;5030923;28;20018;-64
2022/06/16 08:26:39;;;;;;;;;;;30.60;45.70;;;27.18;55.59;96028.97;5026661;28;19925;-65
2022/06/16 08:29:06;;;;;;;;;;;31.10;44.60;;;27.55;52.20;96028.00;5004861;28;19973;-67
2022/06/16 08:31:32;;;;;;;;;;;31.60;41.50;;;27.86;53.40;96037.19;5001503;28;19979;-65
2022/06/16 08:33:58;;;;;;;;;;;31.50;42.80;;;28.12;51.32;96042.88;5010727;28;19924;-66
2022/06/16 08:36:24;;;;;;;;;;;31.80;41.20;;;28.42;51.88;96052.28;5010703;28;19917;-64
2022/06/16 08:38:49;;;;;;;;;;;31.90;41.50;;;28.62;49.59;96062.66;4989121;28;19945;-67
2022/06/16 08:41:47;;;;;;;;;;;31.80;40.10;;;28.81;48.28;96067.13;5004342;28;19934;-63
2022/06/16 08:44:29;;;;;;;;;;;31.60;40.30;;;28.87;49.96;96074.06;5007282;28;20004;-64
2022/06/16 08:47:12;;;;;;;;;;;31.30;41.50;;;28.94;49.26;96077.94;5036090;28;19917;-64
2022/06/16 08:49:39;;;;;;;;;;;31.40;41.40;;;28.98;50.36;96078.13;5019210;28;19917;-65
2022/06/16 08:52:28;;;;;;;;;;;31.40;42.20;;;29.01;49.91;96077.53;5010900;28;19947;-63
2022/06/16 08:55:16;;;;;;;;;;;31.20;42.30;;;29.04;48.95;96085.03;5023226;28;19917;-63
2022/06/16 08:58:18;;;;;;;;;;;31.40;41.30;;;29.07;50.24;96086.31;4992859;28;19917;-63
2022/06/16 09:00:51;;;;;;;;;;;31.00;41.90;;;29.13;49.28;96075.03;4988402;28;20020;-64
2022/06/16 09:03:29;;;;;;;;;;;31.50;42.40;;;29.41;49.50;96085.75;5008045;28;19925;-64
2022/06/16 09:06:13;;;;;;;;;;;32.10;41.60;;;29.71;49.88;96093.16;4998646;28;20008;-64
2022/06/16 09:08:44;;;;;;;;;;;32.30;42.30;;;29.89;49.17;96080.47;5022135;28;19917;-64
2022/06/16 09:11:36;;;;;;;;;;;32.40;41.50;;;29.95;47.64;96081.94;5028033;28;19925;-64
2022/06/16 09:17:33;;;;;;;;;;;32.20;40.70;;;30.24;48.39;96067.84;5004427;28;19979;-65
2022/06/16 09:20:04;;;;;;;;;;;32.90;41.10;;;30.49;48.25;96074.44;5025200;28;19925;-64
2022/06/16 09:22:44;;;;;;;;;;;33.10;40.60;;;30.69;46.67;96078.50;5012974;28;19928;-64
2022/06/16 09:25:35;;;;;;;;;;;33.40;39.30;;;30.97;46.71;96085.22;5025317;28;19932;-64
2022/06/16 09:28:16;;;;;;;;;;;33.80;39.00;;;31.29;46.27;96080.44;5000096;28;19984;-64
2022/06/16 09:30:42;;;;;;;;;;;34.20;37.50;;;31.59;46.80;96078.63;5010313;28;19917;-63
2022/06/16 09:33:11;;;;;;;;;;;34.70;38.50;;;31.98;43.20;96074.84;4996493;28;19928;-63
2022/06/16 09:35:53;;;;;;;;;;;35.30;34.80;;;32.02;43.38;96078.50;5000926;28;19987;-65
2022/06/16 09:38:41;;;;;;;;;;;34.10;36.60;;;31.90;43.46;96090.06;4980853;28;19971;-65
2022/06/16 09:44:36;;;;;;;;;;;33.70;38.60;;;31.44;43.79;96093.50;5032194;28;19924;-65
2022/06/16 09:47:11;;;;;;;;;;;32.90;38.10;;;31.20;44.09;96102.19;5027197;28;19917;-66
2022/06/16 09:49:44;;;;;;;;;;;32.70;38.70;;;30.96;44.57;96104.56;4992196;28;19917;-65
2022/06/16 09:52:24;;;;;;;;;;;32.40;38.80;;;30.76;45.26;96108.69;4986663;28;19922;-66
2022/06/16 09:54:51;;;;;;;;;;;32.30;39.50;;;30.55;44.98;96115.81;5025439;28;19971;-65
2022/06/16 09:57:28;;;;;;;;;;;32.00;40.30;;;30.30;46.13;96128.19;4987303;28;19921;-65
2022/06/16 09:59:56;;;;;;;;;;;31.60;41.10;;;30.12;46.60;96130.06;5016463;28;20288;-65
2022/06/16 10:02:25;;;;;;;;;;;31.60;41.70;;;29.94;47.60;96133.78;5021435;28;20007;-66
2022/06/16 10:04:51;;;;;;;;;;;31.50;42.40;;;29.80;46.77;96140.06;4994806;28;20298;-66
2022/06/16 10:07:23;;;;;;;;;;;31.40;42.00;;;30.07;47.91;96143.75;5003239;28;20292;-65
2022/06/16 10:09:51;;;;;;;;;;;32.90;40.90;;;30.32;46.65;96140.31;5030911;28;19917;-65
2022/06/16 10:12:29;;;;;;;;;;;32.70;40.20;;;30.73;46.34;96144.63;5030410;28;20000;-66
2022/06/16 10:15:24;;;;;;;;;;;33.90;38.40;;;31.41;45.28;96153.97;5028871;28;20249;-65
2022/06/16 10:17:53;;;;;;;;;;;35.00;36.70;;;32.10;44.44;96144.91;5006432;28;20304;-66
2022/06/16 10:20:19;;;;;;;;;;;36.10;36.10;;;32.68;42.50;96135.22;5031720;28;19924;-66
2022/06/16 10:22:46;;;;;;;;;;;36.60;33.30;;;33.25;43.74;96146.34;4985451;28;19921;-66
2022/06/16 10:25:21;;;;;;;;;;;37.60;33.90;;;33.92;39.95;96141.78;5008867;28;19923;-67
2022/06/16 10:27:51;;;;;;;;;;;38.20;30.70;;;34.53;38.75;96150.06;4993085;28;19932;-66
2022/06/16 10:30:23;;;;;;;;;;;38.90;28.20;;;35.10;37.06;96143.66;5008788;28;19917;-66
2022/06/16 10:33:16;;;;;;;;;;;39.10;26.90;;;35.20;37.64;96143.16;5004941;28;19923;-66
2022/06/16 10:35:53;;;;;;;;;;;38.00;28.70;;;35.13;36.66;96142.97;5043473;28;19931;-66
2022/06/16 10:38:44;;;;;;;;;;;37.70;27.90;;;35.33;36.66;96146.66;5029187;28;20434;-66
2022/06/16 10:41:23;;;;;;;;;;;38.60;27.10;;;35.88;36.03;96156.84;5032858;28;19925;-67
2022/06/16 10:43:49;;;;;;;;;;;39.30;27.10;;;36.29;36.70;96155.56;5019734;28;19999;-66
2022/06/16 10:46:22;;;;;;;;;;;39.80;26.80;;;36.75;35.80;96145.75;5006776;28;19921;-67
2022/06/16 10:48:52;;;;;;;;;;;40.40;26.50;;;37.19;35.33;96144.75;4986770;28;19929;-66
2022/06/16 10:51:22;;;;;;;;;;;40.80;25.90;;;37.65;33.91;96143.78;5012375;28;19952;-67
2022/06/16 10:54:01;;;;;;;;;;;41.00;25.40;;;37.97;34.31;96144.41;5002599;28;19967;-67
2022/06/16 10:56:27;;;;;;;;;;;41.10;25.50;;;37.84;33.75;96145.75;5024192;28;19927;-66
2022/06/16 10:59:14;;;;;;;;;;;40.00;25.70;;;37.33;33.67;96142.31;4991950;28;19921;-66
2022/06/16 11:02:08;;;;;;;;;;;39.00;27.20;;;36.66;35.03;96136.09;5007900;28;19925;-66
2022/06/16 11:04:36;;;;;;;;;;;37.80;28.20;;;36.27;36.06;96130.47;5019410;28;19987;-66
2022/06/16 11:07:01;;;;;;;;;;;38.00;29.50;;;36.34;34.51;96124.38;5005140;28;20425;-67
2022/06/16 11:09:29;;;;;;;;;;;38.00;28.50;;;36.25;34.98;96121.03;5012120;28;19917;-66
2022/06/16 11:12:05;;;;;;;;;;;38.00;28.50;;;36.04;34.72;96118.53;5008746;28;20385;-66
2022/06/16 11:14:46;;;;;;;;;;;37.60;27.80;;;35.71;34.37;96130.56;5011538;28;19921;-66
2022/06/16 11:17:28;;;;;;;;;;;37.00;27.80;;;35.30;34.18;96120.78;4988150;28;19921;-66
2022/06/16 11:20:34;;;;;;;;;;;36.30;29.00;;;34.99;35.11;96122.25;5012060;28;20278;-66
2022/06/16 11:23:00;;;;;;;;;;;36.30;29.90;;;35.00;35.13;96128.50;5012934;28;19922;-67
2022/06/16 11:25:31;;;;;;;;;;;36.60;30.00;;;34.90;35.48;96129.00;5035211;28;20010;-66
2022/06/16 11:27:59;;;;;;;;;;;36.30;29.80;;;34.82;35.84;96125.22;5000352;28;20412;-64
2022/06/16 11:30:35;;;;;;;;;;;36.50;30.10;;;35.13;35.58;96121.88;4982667;28;20055;-67
2022/06/16 11:33:00;;;;;;;;;;;37.40;30.00;;;35.65;34.93;96121.00;5010531;28;19945;-67
2022/06/16 11:35:59;;;;;;;;;;;38.50;28.70;;;36.42;32.73;96121.47;5033404;28;20414;-67
2022/06/16 11:38:34;;;;;;;;;;;39.10;26.10;;;36.76;33.48;96119.13;4964616;28;20282;-66
2022/06/16 11:41:01;;;;;;;;;;;39.10;26.50;;;37.03;33.17;96125.63;4998608;28;19976;-67
2022/06/16 11:43:30;;;;;;;;;;;39.70;26.60;;;37.52;30.55;96128.59;4991870;28;19928;-67
2022/06/16 11:45:59;;;;;;;;;;;40.20;23.80;;;38.09;31.23;96123.41;5023081;28;20277;-65
2022/06/16 11:48:43;;;;;;;;;;;40.80;24.60;;;38.61;31.29;96119.97;5008479;28;19921;-67
2022/06/16 11:51:48;;;;;;;;;;;41.30;24.30;;;39.03;30.59;96117.06;5031254;28;19925;-68
2022/06/16 11:54:25;;;;;;;;;;;41.60;23.50;;;39.49;31.15;96106.66;4978671;28;20063;-67